createdAt,value
2022-12-17T00:00:00.124Z,82.2
2022-12-17T00:05:00.101Z,81.6
2022-12-17T00:10:00.086Z,82.2
2022-12-17T00:15:00.094Z,82.2
2022-12-17T00:20:00.128Z,82.1
2022-12-17T00:25:00.095Z,82.1
2022-12-17T00:30:00.103Z,82.1
2022-12-17T00:35:00.098Z,82.1
2022-12-17T00:40:00.116Z,82
2022-12-17T00:45:00.105Z,81.9
2022-12-17T00:50:00.085Z,81.3
2022-12-17T00:55:00.110Z,81.9
2022-12-17T01:00:00.151Z,82
2022-12-17T01:05:00.140Z,82
2022-12-17T01:10:00.113Z,82
2022-12-17T01:15:00.094Z,82
2022-12-17T01:20:00.143Z,91.4
2022-12-17T01:25:00.096Z,81.7
2022-12-17T01:30:00.116Z,81.6
2022-12-17T01:35:00.090Z,81.6
2022-12-17T01:40:00.136Z,81.7
2022-12-17T01:45:00.089Z,81.7
2022-12-17T01:50:00.099Z,81.8
2022-12-17T01:55:00.098Z,81.8
2022-12-17T02:00:00.156Z,81.9
2022-12-17T02:05:00.087Z,81.9
2022-12-17T02:10:00.092Z,81.8
2022-12-17T02:15:00.114Z,81.8
2022-12-17T02:20:00.129Z,81.8
2022-12-17T02:25:00.152Z,81.8
2022-12-17T02:30:00.110Z,81.9
2022-12-17T02:35:00.094Z,81.9
2022-12-17T02:40:00.104Z,81.8
2022-12-17T02:45:00.126Z,81.9
2022-12-17T02:50:00.099Z,81.8
2022-12-17T02:55:00.103Z,81.7
2022-12-17T03:00:00.147Z,81.8
2022-12-17T03:05:06.527Z,81.7
2022-12-17T03:10:00.088Z,81.7
2022-12-17T03:15:00.096Z,81.7
2022-12-17T03:20:00.126Z,81.7
2022-12-17T03:25:00.112Z,81.6
2022-12-17T03:30:00.116Z,81.6
2022-12-17T03:35:00.092Z,81.6
2022-12-17T03:40:00.252Z,81.6
2022-12-17T03:45:00.100Z,81.8
2022-12-17T03:50:00.084Z,81.8
2022-12-17T03:55:00.100Z,81.9
2022-12-17T04:00:00.129Z,81.8
2022-12-17T04:05:00.113Z,81.5
2022-12-17T04:10:00.118Z,81.4
2022-12-17T04:15:00.091Z,81.3
2022-12-17T04:20:00.118Z,81.4
2022-12-17T04:25:00.084Z,81.3
2022-12-17T04:30:00.121Z,81.3
2022-12-17T04:35:00.121Z,81.4
2022-12-17T04:40:00.139Z,81.3
2022-12-17T04:45:00.092Z,81.6
2022-12-17T04:50:00.130Z,81.8
2022-12-17T04:55:00.086Z,81.9
2022-12-17T05:00:00.122Z,82
2022-12-17T05:05:00.091Z,82.1
2022-12-17T05:10:00.107Z,82.2
2022-12-17T05:15:00.075Z,82.1
2022-12-17T05:20:00.150Z,82
2022-12-17T05:25:00.101Z,82
2022-12-17T05:30:00.088Z,81.8
2022-12-17T05:35:00.094Z,82
2022-12-17T05:40:00.130Z,82.3
2022-12-17T05:45:00.091Z,81.8
2022-12-17T05:50:00.099Z,82.9
2022-12-17T05:55:00.108Z,83
2022-12-17T06:00:00.130Z,83.1
2022-12-17T06:05:02.237Z,83.2
2022-12-17T06:10:00.098Z,83.1
2022-12-17T06:15:00.083Z,83.2
2022-12-17T06:20:00.162Z,83.3
2022-12-17T06:25:00.095Z,83.4
2022-12-17T06:30:00.125Z,83.4
2022-12-17T06:35:00.088Z,83.4
2022-12-17T06:40:00.100Z,83.4
2022-12-17T06:45:00.102Z,83.3
2022-12-17T06:50:01.545Z,83.3
2022-12-17T06:55:00.098Z,82.7
2022-12-17T07:00:00.137Z,83.3
2022-12-17T07:05:00.111Z,83.3
2022-12-17T07:10:00.114Z,83.3
2022-12-17T07:15:00.117Z,83.2
2022-12-17T07:20:00.151Z,83.2
2022-12-17T07:25:00.111Z,83.3
2022-12-17T07:30:00.151Z,83.3
2022-12-17T07:35:00.110Z,83.3
2022-12-17T07:40:00.132Z,83.3
2022-12-17T07:45:00.081Z,82.9
2022-12-17T07:50:00.118Z,83
2022-12-17T07:55:00.089Z,83.3
2022-12-17T08:00:00.145Z,83.5
2022-12-17T08:05:00.088Z,83.5
2022-12-17T08:10:00.100Z,84
2022-12-17T08:15:00.092Z,84.7
2022-12-17T08:20:00.104Z,84.7
2022-12-17T08:25:00.093Z,84.3
2022-12-17T08:30:00.114Z,83.5
2022-12-17T08:35:00.106Z,82.9
2022-12-17T08:40:00.113Z,82.7
2022-12-17T08:45:00.096Z,82.8
2022-12-17T08:50:00.125Z,82.8
2022-12-17T08:55:00.089Z,82.9
2022-12-17T09:00:00.134Z,83
2022-12-17T09:05:00.098Z,83.1
2022-12-17T09:10:00.133Z,83.3
2022-12-17T09:15:00.097Z,83.4
2022-12-17T09:20:00.121Z,83.5
2022-12-17T09:25:00.102Z,83.5
2022-12-17T09:30:00.101Z,83.3
2022-12-17T09:35:00.095Z,83.1
2022-12-17T09:40:00.130Z,82.9
2022-12-17T09:45:00.088Z,82.8
2022-12-17T09:50:00.108Z,82.8
2022-12-17T09:55:01.511Z,82.8
2022-12-17T10:00:00.180Z,82.6
2022-12-17T10:05:00.120Z,82.4
2022-12-17T10:10:00.109Z,82.3
2022-12-17T10:15:00.166Z,82.3
2022-12-17T10:20:00.149Z,82.3
2022-12-17T10:25:00.111Z,82.3
2022-12-17T10:30:00.123Z,81.7
2022-12-17T10:35:05.126Z,81.9
2022-12-17T10:40:00.170Z,81.9
2022-12-17T10:45:00.103Z,81.9
2022-12-17T10:50:00.098Z,82.2
2022-12-17T10:55:00.107Z,82.2
2022-12-17T11:00:00.133Z,82.2
2022-12-17T11:05:00.108Z,82.1
2022-12-17T11:10:02.440Z,82.2
2022-12-17T11:15:00.100Z,82.1
2022-12-17T11:20:00.116Z,82.1
2022-12-17T11:25:00.129Z,82
2022-12-17T11:30:00.124Z,81.8
2022-12-17T11:35:00.110Z,81.9
2022-12-17T11:40:00.132Z,81.8
2022-12-17T11:45:00.108Z,81.7
2022-12-17T11:50:00.112Z,81.9
2022-12-17T11:55:00.095Z,81.7
2022-12-17T12:00:03.979Z,81.8
2022-12-17T12:05:00.091Z,81.7
2022-12-17T12:10:00.119Z,81.7
2022-12-17T12:15:00.109Z,81.4
2022-12-17T12:20:00.120Z,81.2
2022-12-17T12:25:00.120Z,81.2
2022-12-17T12:30:00.107Z,81
2022-12-17T12:35:00.138Z,81.2
2022-12-17T12:40:00.119Z,81.2
2022-12-17T12:45:00.101Z,81.2
2022-12-17T12:50:00.122Z,81
2022-12-17T12:55:00.114Z,81
2022-12-17T13:00:00.170Z,81
2022-12-17T13:05:00.148Z,81.1
2022-12-17T13:10:00.211Z,81
2022-12-17T13:15:00.101Z,81
2022-12-17T13:20:00.137Z,81
2022-12-17T13:25:00.101Z,80.8
2022-12-17T13:30:00.120Z,80.7
2022-12-17T13:35:00.100Z,80.6
2022-12-17T13:40:00.151Z,80.5
2022-12-17T13:45:00.100Z,80.5
2022-12-17T13:55:00.106Z,80.7
2022-12-17T14:00:00.162Z,80.7
2022-12-17T14:05:04.140Z,80.8
2022-12-17T14:10:00.125Z,80.9
2022-12-17T14:15:00.108Z,80.8
2022-12-17T14:20:00.162Z,80.7
2022-12-17T14:25:00.119Z,80.9
2022-12-17T14:30:00.127Z,81
2022-12-17T14:35:00.889Z,81
2022-12-17T14:40:00.233Z,80.9
2022-12-17T14:45:00.121Z,80.7
2022-12-17T14:50:00.137Z,81.2
2022-12-17T14:55:00.113Z,81.6
2022-12-17T15:00:00.158Z,81.6
2022-12-17T15:05:00.090Z,81.5
2022-12-17T15:10:00.111Z,81.5
2022-12-17T15:15:00.104Z,81.6
2022-12-17T15:20:00.110Z,81.5
2022-12-17T15:25:00.140Z,81.6
2022-12-17T15:30:00.204Z,81.5
2022-12-17T15:35:00.101Z,81.7
2022-12-17T15:40:00.204Z,82
2022-12-17T15:45:00.107Z,82.3
2022-12-17T15:50:00.106Z,82.3
2022-12-17T15:55:00.099Z,82.3
2022-12-17T16:00:00.226Z,82.3
2022-12-17T16:05:00.111Z,82.3
2022-12-17T16:10:04.686Z,82.4
2022-12-17T16:15:00.197Z,82.5
2022-12-17T16:20:00.140Z,82.5
2022-12-17T16:25:00.090Z,82.2
2022-12-17T16:30:00.141Z,81.9
2022-12-17T16:35:00.093Z,82
2022-12-17T16:40:00.747Z,82.2
2022-12-17T16:45:00.117Z,82.4
2022-12-17T16:50:00.090Z,82.5
2022-12-17T16:55:00.099Z,82.5
2022-12-17T17:00:00.158Z,82.3
2022-12-17T17:05:00.104Z,82.2
2022-12-17T17:10:00.101Z,82.5
2022-12-17T17:15:00.125Z,82.7
2022-12-17T17:20:00.115Z,82.9
2022-12-17T17:25:00.091Z,83.1
2022-12-17T17:30:03.418Z,83.3
2022-12-17T17:35:00.114Z,83.4
2022-12-17T17:40:00.259Z,83.6
2022-12-17T17:45:00.097Z,83.5
2022-12-17T17:50:00.126Z,83.6
2022-12-17T17:55:00.098Z,83.7
2022-12-17T18:00:00.185Z,83.6
2022-12-17T18:05:00.310Z,83.5
2022-12-17T18:10:00.087Z,83.8
2022-12-17T18:15:17.180Z,83.7
2022-12-17T18:20:00.204Z,83.9
2022-12-17T18:25:00.111Z,84
2022-12-17T18:30:00.122Z,83.9
2022-12-17T18:35:00.260Z,83.8
2022-12-17T18:40:00.140Z,84.1
2022-12-17T18:45:00.126Z,84.6
2022-12-17T18:50:00.116Z,84.2
2022-12-17T18:55:00.089Z,85
2022-12-17T19:00:00.146Z,84.2
2022-12-17T19:05:00.132Z,85.1
2022-12-17T19:10:00.106Z,85.1
2022-12-17T19:15:00.130Z,85.1
2022-12-17T19:20:00.115Z,85.3
2022-12-17T19:25:00.093Z,85.5
2022-12-17T19:30:00.135Z,85.3
2022-12-17T19:35:00.108Z,85.2
2022-12-17T19:40:00.111Z,85.4
2022-12-17T19:45:00.147Z,85.4
2022-12-17T19:50:00.094Z,85.5
2022-12-17T19:55:00.121Z,85.4
2022-12-17T20:00:00.210Z,85.3
2022-12-17T20:05:00.123Z,85.4
2022-12-17T20:10:00.117Z,85.4
2022-12-17T20:15:00.092Z,85.3
2022-12-17T20:20:00.138Z,85.2
2022-12-17T20:25:00.099Z,85.1
2022-12-17T20:30:00.131Z,85.2
2022-12-17T20:35:00.112Z,85.1
2022-12-17T20:40:00.167Z,85.1
2022-12-17T20:45:00.116Z,85
2022-12-17T20:50:00.119Z,84.8
2022-12-17T20:55:00.155Z,84.8
2022-12-17T21:00:00.160Z,84.7
2022-12-17T21:05:00.105Z,84.8
2022-12-17T21:10:00.101Z,85
2022-12-17T21:15:00.087Z,84.3
2022-12-17T21:20:04.551Z,85.1
2022-12-17T21:25:00.120Z,85.1
2022-12-17T21:30:00.118Z,84.9
2022-12-17T21:35:00.139Z,84.7
2022-12-17T21:40:00.321Z,84.3
2022-12-17T21:45:00.126Z,84
2022-12-17T21:50:00.099Z,84
2022-12-17T21:55:00.095Z,83.9
2022-12-17T22:00:00.170Z,83.9
2022-12-17T22:05:00.220Z,83.8
2022-12-17T22:10:11.376Z,83.6
2022-12-17T22:15:00.087Z,83.2
2022-12-17T22:20:00.135Z,82.9
2022-12-17T22:25:04.592Z,83
2022-12-17T22:30:00.119Z,83.1
2022-12-17T22:35:42.930Z,83.1
2022-12-17T22:42:30.008Z,82.9
2022-12-17T22:45:06.299Z,82.6
2022-12-17T22:50:00.122Z,82.3
2022-12-17T22:55:00.138Z,82
2022-12-17T23:00:00.175Z,81.8
2022-12-17T23:05:00.121Z,81.8
2022-12-17T23:10:00.164Z,81.7
2022-12-17T23:15:00.105Z,81.5
2022-12-17T23:20:00.127Z,81.7
2022-12-17T23:25:00.116Z,82
2022-12-17T23:30:00.134Z,81.8
2022-12-17T23:35:00.099Z,81.3
2022-12-17T23:40:00.142Z,81.2
2022-12-17T23:45:00.114Z,81
2022-12-17T23:50:00.124Z,81.2
2022-12-17T23:55:00.109Z,81.2
